createdAt,value
2023-01-17T00:00:03.590Z,974.39
2023-01-17T00:01:03.388Z,974.46
2023-01-17T00:02:03.364Z,974.41
2023-01-17T00:03:03.374Z,974.48
2023-01-17T00:04:03.362Z,974.53
2023-01-17T00:05:03.271Z,974.46
2023-01-17T00:06:03.249Z,974.45
2023-01-17T00:07:03.222Z,974.48
2023-01-17T00:08:03.187Z,974.47
2023-01-17T00:09:03.172Z,974.43
2023-01-17T00:10:03.141Z,974.47
2023-01-17T00:11:03.103Z,974.46
2023-01-17T00:12:03.078Z,974.47
2023-01-17T00:13:03.051Z,974.43
2023-01-17T00:14:03.017Z,974.44
2023-01-17T00:15:02.991Z,974.42
2023-01-17T00:16:03.015Z,974.35
2023-01-17T00:17:02.935Z,974.37
2023-01-17T00:18:02.910Z,974.35
2023-01-17T00:19:02.881Z,974.39
2023-01-17T00:20:02.853Z,974.36
2023-01-17T00:21:02.830Z,974.35
2023-01-17T00:22:02.804Z,974.43
2023-01-17T00:23:02.768Z,974.41
2023-01-17T00:24:02.735Z,974.50
2023-01-17T00:25:02.717Z,974.49
2023-01-17T00:26:02.679Z,974.52
2023-01-17T00:27:02.657Z,974.51
2023-01-17T00:28:02.629Z,974.54
2023-01-17T00:29:02.614Z,974.49
2023-01-17T00:30:02.569Z,974.52
2023-01-17T00:31:02.599Z,974.49
2023-01-17T00:32:02.534Z,974.54
2023-01-17T00:33:02.502Z,974.56
2023-01-17T00:34:02.463Z,974.57
2023-01-17T00:35:02.430Z,974.58
2023-01-17T00:36:02.412Z,974.62
2023-01-17T00:37:02.380Z,974.64
2023-01-17T00:38:02.354Z,974.65
2023-01-17T00:39:02.324Z,974.68
2023-01-17T00:40:02.283Z,974.69
2023-01-17T00:41:02.266Z,974.76
2023-01-17T00:42:02.253Z,974.74
2023-01-17T00:43:02.207Z,974.75
2023-01-17T00:44:02.176Z,974.76
2023-01-17T00:45:02.171Z,974.73
2023-01-17T00:46:02.123Z,974.75
2023-01-17T00:47:02.096Z,974.76
2023-01-17T00:48:02.093Z,974.73
2023-01-17T00:49:02.037Z,974.76
2023-01-17T00:50:02.007Z,974.80
2023-01-17T00:51:01.982Z,974.80
2023-01-17T00:52:01.954Z,974.79
2023-01-17T00:53:01.930Z,974.82
2023-01-17T00:54:01.896Z,974.92
2023-01-17T00:55:01.921Z,974.90
2023-01-17T00:56:01.843Z,974.95
2023-01-17T00:57:01.816Z,974.98
2023-01-17T00:58:01.792Z,974.95
2023-01-17T00:59:01.765Z,975.06
2023-01-17T01:00:01.761Z,975.01
2023-01-17T01:01:01.899Z,975.07
2023-01-17T01:02:01.776Z,975.08
2023-01-17T01:03:01.644Z,975.09
2023-01-17T01:04:01.636Z,975.07
2023-01-17T01:05:01.589Z,975.08
2023-01-17T01:06:01.564Z,975.08
2023-01-17T01:07:01.536Z,975.13
2023-01-17T01:08:01.505Z,975.10
2023-01-17T01:09:01.497Z,975.11
2023-01-17T01:10:01.461Z,975.14
2023-01-17T01:11:01.442Z,975.20
2023-01-17T01:12:01.394Z,975.25
2023-01-17T01:13:01.370Z,975.21
2023-01-17T01:14:01.335Z,975.24
2023-01-17T01:15:01.327Z,975.20
2023-01-17T01:16:01.361Z,975.21
2023-01-17T01:17:01.255Z,975.25
2023-01-17T01:18:01.226Z,975.20
2023-01-17T01:19:01.203Z,975.22
2023-01-17T01:20:01.191Z,975.28
2023-01-17T01:21:01.150Z,975.25
2023-01-17T01:22:01.116Z,975.18
2023-01-17T01:23:01.086Z,975.34
2023-01-17T01:24:01.058Z,975.34
2023-01-17T01:25:01.029Z,975.36
2023-01-17T01:26:00.999Z,975.38
2023-01-17T01:27:00.977Z,975.43
2023-01-17T01:28:00.944Z,975.46
2023-01-17T01:29:00.917Z,975.47
2023-01-17T01:30:00.885Z,975.40
2023-01-17T01:31:00.861Z,975.52
2023-01-17T01:32:00.853Z,975.43
2023-01-17T01:33:00.821Z,975.52
2023-01-17T01:34:00.784Z,975.52
2023-01-17T01:35:00.749Z,975.57
2023-01-17T01:36:00.752Z,975.55
2023-01-17T01:37:00.702Z,975.56
2023-01-17T01:38:00.659Z,975.59
2023-01-17T01:39:00.635Z,975.56
2023-01-17T01:40:00.613Z,975.58
2023-01-17T01:41:00.583Z,975.60
2023-01-17T01:42:00.555Z,975.59
2023-01-17T01:43:00.533Z,975.56
2023-01-17T01:44:00.498Z,975.63
2023-01-17T01:45:00.474Z,975.63
2023-01-17T01:46:00.450Z,975.60
2023-01-17T01:47:00.414Z,975.67
2023-01-17T01:48:00.383Z,975.61
2023-01-17T01:49:00.357Z,975.59
2023-01-17T01:50:00.342Z,975.65
2023-01-17T01:51:00.301Z,975.62
2023-01-17T01:52:00.306Z,975.63
2023-01-17T01:53:00.244Z,975.70
2023-01-17T01:54:00.211Z,975.72
2023-01-17T01:55:00.191Z,975.74
2023-01-17T01:56:00.160Z,975.71
2023-01-17T01:57:00.131Z,975.80
2023-01-17T01:58:00.120Z,975.75
2023-01-17T01:59:00.094Z,975.82
2023-01-17T02:00:00.071Z,975.74
2023-01-17T02:01:00.207Z,975.85
2023-01-17T02:01:59.993Z,975.86
2023-01-17T02:02:59.958Z,975.86
2023-01-17T02:03:59.994Z,975.88
2023-01-17T02:04:59.913Z,975.97
2023-01-17T02:05:59.879Z,975.91
2023-01-17T02:06:59.853Z,975.93
2023-01-17T02:07:59.842Z,976.07
2023-01-17T02:08:59.794Z,975.97
2023-01-17T02:09:59.761Z,976.02
2023-01-17T02:10:59.741Z,976.05
2023-01-17T02:11:59.699Z,976.17
2023-01-17T02:12:59.683Z,976.05
2023-01-17T02:13:59.645Z,976.04
2023-01-17T02:14:59.620Z,976.16
2023-01-17T02:15:59.678Z,976.20
2023-01-17T02:16:59.563Z,976.22
2023-01-17T02:17:59.544Z,976.18
2023-01-17T02:18:59.515Z,976.29
2023-01-17T02:19:59.480Z,976.28
2023-01-17T02:20:59.482Z,976.22
2023-01-17T02:21:59.417Z,976.38
2023-01-17T02:22:59.401Z,976.41
2023-01-17T02:23:59.395Z,976.38
2023-01-17T02:24:59.344Z,976.42
2023-01-17T02:25:59.306Z,976.46
2023-01-17T02:26:59.283Z,976.55
2023-01-17T02:27:59.258Z,976.54
2023-01-17T02:28:59.227Z,976.50
2023-01-17T02:29:59.194Z,976.46
2023-01-17T02:30:59.173Z,976.53
2023-01-17T02:31:59.141Z,976.51
2023-01-17T02:32:59.117Z,976.52
2023-01-17T02:33:59.089Z,976.59
2023-01-17T02:34:59.070Z,976.65
2023-01-17T02:35:59.034Z,976.67
2023-01-17T02:36:59.004Z,976.67
2023-01-17T02:37:58.969Z,976.69
2023-01-17T02:38:58.953Z,976.72
2023-01-17T02:39:58.937Z,976.75
2023-01-17T02:40:58.888Z,976.74
2023-01-17T02:41:58.857Z,976.80
2023-01-17T02:42:58.835Z,976.81
2023-01-17T02:43:58.804Z,976.73
2023-01-17T02:44:58.779Z,976.71
2023-01-17T02:45:58.773Z,976.81
2023-01-17T02:46:58.717Z,976.82
2023-01-17T02:47:58.688Z,976.95
2023-01-17T02:48:58.663Z,976.92
2023-01-17T02:49:58.633Z,976.90
2023-01-17T02:50:58.598Z,976.97
2023-01-17T02:51:58.578Z,977.01
2023-01-17T02:52:58.550Z,977.01
2023-01-17T02:53:58.521Z,976.97
2023-01-17T02:54:58.489Z,976.99
2023-01-17T02:55:58.490Z,977.04
2023-01-17T02:56:58.435Z,977.08
2023-01-17T02:57:58.403Z,977.09
2023-01-17T02:58:58.383Z,977.13
2023-01-17T02:59:58.364Z,977.14
2023-01-17T03:00:58.435Z,977.17
2023-01-17T03:01:58.461Z,977.18
2023-01-17T03:02:58.287Z,977.34
2023-01-17T03:03:58.233Z,977.27
2023-01-17T03:04:58.202Z,977.29
2023-01-17T03:05:58.185Z,977.34
2023-01-17T03:06:58.149Z,977.45
2023-01-17T03:07:58.121Z,977.46
2023-01-17T03:08:58.100Z,977.49
2023-01-17T03:09:58.075Z,977.45
2023-01-17T03:10:58.037Z,977.50
2023-01-17T03:11:58.028Z,977.45
2023-01-17T03:12:57.983Z,977.52
2023-01-17T03:13:57.952Z,977.52
2023-01-17T03:14:57.921Z,977.51
2023-01-17T03:15:57.896Z,977.48
2023-01-17T03:16:57.862Z,977.52
2023-01-17T03:17:57.837Z,977.55
2023-01-17T03:18:57.809Z,977.61
2023-01-17T03:19:57.780Z,977.64
2023-01-17T03:20:57.749Z,977.68
2023-01-17T03:21:57.720Z,977.68
2023-01-17T03:22:57.690Z,977.70
2023-01-17T03:23:57.671Z,977.69
2023-01-17T03:24:57.646Z,977.69
2023-01-17T03:25:57.608Z,977.77
2023-01-17T03:26:57.586Z,977.67
2023-01-17T03:27:57.677Z,977.83
2023-01-17T03:28:57.522Z,977.78
2023-01-17T03:29:57.497Z,977.75
2023-01-17T03:30:57.536Z,977.82
2023-01-17T03:31:57.436Z,977.74
2023-01-17T03:32:57.412Z,977.79
2023-01-17T03:33:57.386Z,977.82
2023-01-17T03:34:57.353Z,977.77
2023-01-17T03:35:57.325Z,977.88
2023-01-17T03:36:57.297Z,977.90
2023-01-17T03:37:57.266Z,977.87
2023-01-17T03:38:57.236Z,977.90
2023-01-17T03:39:57.209Z,977.97
2023-01-17T03:40:57.177Z,977.98
2023-01-17T03:41:57.153Z,978.03
2023-01-17T03:42:57.122Z,978.01
2023-01-17T03:43:57.139Z,978.06
2023-01-17T03:44:57.083Z,978.08
2023-01-17T03:45:57.059Z,978.08
2023-01-17T03:46:57.007Z,978.09
2023-01-17T03:47:56.979Z,978.14
2023-01-17T03:48:56.964Z,978.13
2023-01-17T03:49:56.924Z,978.22
2023-01-17T03:50:56.894Z,978.18
2023-01-17T03:51:56.870Z,978.26
2023-01-17T03:52:56.836Z,978.22
2023-01-17T03:53:56.808Z,978.24
2023-01-17T03:54:56.774Z,978.31
2023-01-17T03:55:56.754Z,978.33
2023-01-17T03:56:56.721Z,978.28
2023-01-17T03:57:56.698Z,978.34
2023-01-17T03:58:56.671Z,978.32
2023-01-17T03:59:56.664Z,978.40
2023-01-17T04:00:56.740Z,978.47
2023-01-17T04:01:56.600Z,978.44
2023-01-17T04:02:56.575Z,978.43
2023-01-17T04:03:56.526Z,978.46
2023-01-17T04:04:56.493Z,978.49
2023-01-17T04:05:56.466Z,978.46
2023-01-17T04:06:56.445Z,978.46
2023-01-17T04:07:56.410Z,978.48
2023-01-17T04:08:56.390Z,978.51
2023-01-17T04:09:56.356Z,978.55
2023-01-17T04:10:56.324Z,978.59
2023-01-17T04:11:56.300Z,978.58
2023-01-17T04:12:56.263Z,978.56
2023-01-17T04:13:56.249Z,978.57
2023-01-17T04:14:56.206Z,978.56
2023-01-17T04:15:56.212Z,978.57
2023-01-17T04:16:56.200Z,978.56
2023-01-17T04:17:56.134Z,978.57
2023-01-17T04:18:56.093Z,978.61
2023-01-17T04:19:56.068Z,978.62
2023-01-17T04:20:56.061Z,978.65
2023-01-17T04:21:56.013Z,978.65
2023-01-17T04:22:55.987Z,978.67
2023-01-17T04:23:55.967Z,978.69
2023-01-17T04:24:55.922Z,978.72
2023-01-17T04:25:55.902Z,978.76
2023-01-17T04:26:55.867Z,978.74
2023-01-17T04:27:55.842Z,978.76
2023-01-17T04:28:55.807Z,978.80
2023-01-17T04:29:55.791Z,978.81
2023-01-17T04:30:55.772Z,978.79
2023-01-17T04:31:55.793Z,978.85
2023-01-17T04:32:55.703Z,978.86
2023-01-17T04:33:55.671Z,978.89
2023-01-17T04:34:55.634Z,978.92
2023-01-17T04:35:55.616Z,978.90
2023-01-17T04:36:55.586Z,978.84
2023-01-17T04:37:55.562Z,978.85
2023-01-17T04:38:55.527Z,978.90
2023-01-17T04:39:55.497Z,978.84
2023-01-17T04:40:55.479Z,978.89
2023-01-17T04:41:55.439Z,978.82
2023-01-17T04:42:55.411Z,978.88
2023-01-17T04:43:55.388Z,978.85
2023-01-17T04:44:55.352Z,978.87
2023-01-17T04:45:55.353Z,978.87
2023-01-17T04:46:55.295Z,978.93
2023-01-17T04:47:55.300Z,978.96
2023-01-17T04:48:55.238Z,978.97
2023-01-17T04:49:55.212Z,979.00
2023-01-17T04:50:55.182Z,979.01
2023-01-17T04:51:55.162Z,979.01
2023-01-17T04:52:55.126Z,979.05
2023-01-17T04:53:55.100Z,979.00
2023-01-17T04:54:55.066Z,979.02
2023-01-17T04:55:55.042Z,979.05
2023-01-17T04:56:55.009Z,979.07
2023-01-17T04:57:54.982Z,979.08
2023-01-17T04:58:54.956Z,979.11
2023-01-17T04:59:54.929Z,979.09
2023-01-17T05:00:55.000Z,979.12
2023-01-17T05:01:54.921Z,979.15
2023-01-17T05:02:54.844Z,979.14
2023-01-17T05:03:54.835Z,979.15
2023-01-17T05:04:54.777Z,979.14
2023-01-17T05:05:54.754Z,979.14
2023-01-17T05:06:54.728Z,979.15
2023-01-17T05:07:54.720Z,979.18
2023-01-17T05:08:54.661Z,979.17
2023-01-17T05:09:54.644Z,979.18
2023-01-17T05:10:54.618Z,979.14
2023-01-17T05:11:54.584Z,979.18
2023-01-17T05:12:54.551Z,979.22
2023-01-17T05:13:54.527Z,979.22
2023-01-17T05:14:54.496Z,979.23
2023-01-17T05:15:54.502Z,979.22
2023-01-17T05:16:54.442Z,979.22
2023-01-17T05:17:54.410Z,979.22
2023-01-17T05:18:54.397Z,979.25
2023-01-17T05:19:54.378Z,979.24
2023-01-17T05:20:54.320Z,979.26
2023-01-17T05:21:54.297Z,979.26
2023-01-17T05:22:54.270Z,979.27
2023-01-17T05:23:54.243Z,979.24
2023-01-17T05:24:54.225Z,979.29
2023-01-17T05:25:54.181Z,979.36
2023-01-17T05:26:54.147Z,979.37
2023-01-17T05:27:54.129Z,979.35
2023-01-17T05:28:54.100Z,979.38
2023-01-17T05:29:54.068Z,979.39
2023-01-17T05:30:54.100Z,979.42
2023-01-17T05:31:54.008Z,979.50
2023-01-17T05:32:53.979Z,979.43
2023-01-17T05:33:53.952Z,979.43
2023-01-17T05:34:53.948Z,979.43
2023-01-17T05:35:53.926Z,979.45
2023-01-17T05:36:53.865Z,979.45
2023-01-17T05:37:53.840Z,979.43
2023-01-17T05:38:53.807Z,979.49
2023-01-17T05:39:53.780Z,979.53
2023-01-17T05:40:53.749Z,979.57
2023-01-17T05:41:53.732Z,979.59
2023-01-17T05:42:53.702Z,979.58
2023-01-17T05:43:53.665Z,979.60
2023-01-17T05:44:53.632Z,979.65
2023-01-17T05:45:53.728Z,979.61
2023-01-17T05:46:53.580Z,979.65
2023-01-17T05:47:53.553Z,979.66
2023-01-17T05:48:53.527Z,979.67
2023-01-17T05:49:53.491Z,979.68
2023-01-17T05:50:53.461Z,979.76
2023-01-17T05:51:54.952Z,979.74
2023-01-17T05:52:53.411Z,979.78
2023-01-17T05:53:53.381Z,979.78
2023-01-17T05:54:53.349Z,979.80
2023-01-17T05:55:53.322Z,979.83
2023-01-17T05:56:53.294Z,979.82
2023-01-17T05:57:53.272Z,979.89
2023-01-17T05:58:53.237Z,979.87
2023-01-17T05:59:53.211Z,979.90
2023-01-17T06:00:53.240Z,979.94
2023-01-17T06:01:53.152Z,979.91
2023-01-17T06:02:53.141Z,979.91
2023-01-17T06:03:53.097Z,979.89
2023-01-17T06:04:53.127Z,979.92
2023-01-17T06:05:53.037Z,979.93
2023-01-17T06:06:53.014Z,979.90
2023-01-17T06:07:53.001Z,979.98
2023-01-17T06:08:52.961Z,980.01
2023-01-17T06:09:52.920Z,980.00
2023-01-17T06:10:52.891Z,980.03
2023-01-17T06:11:52.865Z,980.10
2023-01-17T06:12:52.836Z,980.08
2023-01-17T06:13:52.811Z,980.09
2023-01-17T06:14:52.779Z,980.10
2023-01-17T06:15:52.821Z,980.08
2023-01-17T06:16:52.725Z,980.13
2023-01-17T06:17:52.705Z,980.10
2023-01-17T06:18:52.664Z,980.12
2023-01-17T06:19:52.642Z,980.15
2023-01-17T06:20:52.608Z,980.14
2023-01-17T06:21:52.581Z,980.16
2023-01-17T06:22:52.545Z,980.18
2023-01-17T06:23:52.538Z,980.14
2023-01-17T06:24:52.495Z,980.13
2023-01-17T06:25:52.482Z,980.14
2023-01-17T06:26:52.432Z,980.13
2023-01-17T06:27:52.408Z,980.16
2023-01-17T06:28:52.379Z,980.15
2023-01-17T06:29:52.357Z,980.19
2023-01-17T06:30:52.345Z,980.17
2023-01-17T06:31:52.294Z,980.16
2023-01-17T06:32:52.271Z,980.20
2023-01-17T06:33:52.239Z,980.24
2023-01-17T06:34:52.208Z,980.28
2023-01-17T06:35:52.178Z,980.21
2023-01-17T06:36:52.151Z,980.20
2023-01-17T06:37:52.129Z,980.24
2023-01-17T06:38:52.090Z,980.27
2023-01-17T06:39:52.092Z,980.32
2023-01-17T06:40:52.110Z,980.35
2023-01-17T06:41:52.010Z,980.37
2023-01-17T06:42:51.978Z,980.41
2023-01-17T06:43:51.958Z,980.40
2023-01-17T06:44:51.917Z,980.43
2023-01-17T06:45:51.892Z,980.48
2023-01-17T06:46:51.913Z,980.45
2023-01-17T06:47:51.850Z,980.43
2023-01-17T06:48:51.847Z,980.46
2023-01-17T06:49:51.786Z,980.51
2023-01-17T06:50:51.748Z,980.51
2023-01-17T06:51:51.724Z,980.51
2023-01-17T06:52:51.692Z,980.48
2023-01-17T06:53:51.668Z,980.50
2023-01-17T06:54:51.632Z,980.51
2023-01-17T06:55:51.633Z,980.51
2023-01-17T06:56:51.579Z,980.50
2023-01-17T06:57:51.553Z,980.51
2023-01-17T06:58:51.527Z,980.49
2023-01-17T06:59:51.494Z,980.48
2023-01-17T07:00:51.628Z,980.48
2023-01-17T07:01:51.529Z,980.48
2023-01-17T07:02:51.403Z,980.48
2023-01-17T07:03:51.444Z,980.51
2023-01-17T07:04:51.355Z,980.58
2023-01-17T07:05:51.322Z,980.55
2023-01-17T07:06:51.296Z,980.60
2023-01-17T07:07:51.263Z,980.66
2023-01-17T07:08:51.239Z,980.64
2023-01-17T07:09:51.208Z,980.67
2023-01-17T07:10:51.192Z,980.68
2023-01-17T07:11:51.205Z,980.71
2023-01-17T07:12:51.121Z,980.71
2023-01-17T07:13:51.094Z,980.76
2023-01-17T07:14:51.065Z,980.73
2023-01-17T07:15:51.086Z,980.72
2023-01-17T07:16:51.012Z,980.74
2023-01-17T07:17:50.986Z,980.74
2023-01-17T07:18:50.966Z,980.74
2023-01-17T07:19:50.946Z,980.76
2023-01-17T07:20:50.895Z,980.79
2023-01-17T07:21:50.864Z,980.81
2023-01-17T07:22:50.845Z,980.78
2023-01-17T07:23:50.812Z,980.88
2023-01-17T07:24:50.785Z,980.83
2023-01-17T07:25:50.752Z,980.83
2023-01-17T07:26:50.724Z,980.90
2023-01-17T07:27:50.718Z,980.90
2023-01-17T07:28:50.679Z,980.92
2023-01-17T07:29:51.781Z,980.92
2023-01-17T07:30:50.610Z,980.94
2023-01-17T07:31:50.576Z,980.98
2023-01-17T07:32:50.558Z,981.00
2023-01-17T07:33:50.524Z,980.99
2023-01-17T07:34:50.492Z,981.00
2023-01-17T07:35:50.463Z,980.98
2023-01-17T07:36:50.437Z,980.99
2023-01-17T07:37:50.412Z,981.02
2023-01-17T07:38:50.389Z,981.02
2023-01-17T07:39:50.351Z,981.05
2023-01-17T07:40:50.323Z,981.03
2023-01-17T07:41:50.300Z,981.03
2023-01-17T07:42:50.292Z,981.08
2023-01-17T07:43:50.271Z,981.07
2023-01-17T07:44:50.219Z,981.13
2023-01-17T07:45:50.179Z,981.11
2023-01-17T07:46:50.193Z,981.09
2023-01-17T07:47:50.193Z,981.09
2023-01-17T07:48:50.104Z,981.06
2023-01-17T07:49:50.066Z,981.08
2023-01-17T07:50:50.034Z,981.08
2023-01-17T07:51:50.018Z,981.11
2023-01-17T07:52:49.997Z,981.14
2023-01-17T07:53:49.951Z,981.11
2023-01-17T07:54:49.921Z,981.09
2023-01-17T07:55:49.888Z,981.15
2023-01-17T07:56:49.874Z,981.10
2023-01-17T07:57:49.838Z,981.13
2023-01-17T07:58:49.826Z,981.18
2023-01-17T07:59:49.801Z,981.12
2023-01-17T08:00:49.950Z,981.13
2023-01-17T08:01:49.843Z,981.15
2023-01-17T08:02:49.694Z,981.12
2023-01-17T08:03:49.713Z,981.13
2023-01-17T08:04:49.639Z,981.12
2023-01-17T08:05:49.752Z,981.15
2023-01-17T08:06:49.576Z,981.15
2023-01-17T08:07:49.563Z,981.07
2023-01-17T08:08:49.529Z,981.10
2023-01-17T08:09:49.523Z,981.12
2023-01-17T08:10:49.476Z,981.09
2023-01-17T08:11:49.434Z,981.06
2023-01-17T08:12:49.405Z,981.10
2023-01-17T08:13:49.380Z,981.10
2023-01-17T08:14:49.349Z,981.09
2023-01-17T08:15:49.344Z,981.06
2023-01-17T08:16:49.293Z,981.05
2023-01-17T08:17:49.262Z,981.06
2023-01-17T08:18:49.238Z,981.08
2023-01-17T08:19:49.208Z,981.08
2023-01-17T08:20:49.179Z,981.14
2023-01-17T08:21:49.164Z,981.12
2023-01-17T08:22:49.137Z,981.11
2023-01-17T08:23:49.092Z,981.13
2023-01-17T08:24:49.069Z,981.17
2023-01-17T08:25:49.038Z,981.09
2023-01-17T08:26:49.005Z,981.10
2023-01-17T08:27:48.975Z,981.11
2023-01-17T08:28:48.951Z,981.13
2023-01-17T08:29:48.916Z,981.14
2023-01-17T08:30:48.893Z,981.08
2023-01-17T08:31:48.918Z,981.14
2023-01-17T08:32:48.841Z,981.16
2023-01-17T08:33:48.810Z,981.16
2023-01-17T08:34:48.777Z,981.11
2023-01-17T08:35:48.740Z,981.15
2023-01-17T08:36:48.717Z,981.16
2023-01-17T08:37:48.684Z,981.20
2023-01-17T08:38:48.661Z,981.23
2023-01-17T08:39:48.628Z,981.22
2023-01-17T08:40:48.613Z,981.24
2023-01-17T08:41:48.602Z,981.19
2023-01-17T08:42:48.549Z,981.21
2023-01-17T08:43:48.516Z,981.20
2023-01-17T08:44:48.488Z,981.24
2023-01-17T08:45:48.554Z,981.19
2023-01-17T08:46:48.440Z,981.23
2023-01-17T08:47:48.429Z,981.24
2023-01-17T08:48:48.377Z,981.18
2023-01-17T08:49:48.345Z,981.23
2023-01-17T08:50:48.326Z,981.26
2023-01-17T08:51:48.286Z,981.25
2023-01-17T08:52:48.261Z,981.26
2023-01-17T08:53:48.231Z,981.27
2023-01-17T08:54:48.209Z,981.30
2023-01-17T08:55:48.171Z,981.27
2023-01-17T08:56:48.150Z,981.28
2023-01-17T08:57:48.109Z,981.30
2023-01-17T08:58:48.098Z,981.30
2023-01-17T08:59:48.061Z,981.31
2023-01-17T09:00:48.209Z,981.28
2023-01-17T09:01:48.136Z,981.28
2023-01-17T09:02:47.969Z,981.24
2023-01-17T09:03:47.971Z,981.29
2023-01-17T09:04:47.921Z,981.28
2023-01-17T09:05:47.889Z,981.26
2023-01-17T09:06:47.862Z,981.29
2023-01-17T09:07:47.829Z,981.27
2023-01-17T09:08:47.824Z,981.31
2023-01-17T09:09:47.764Z,981.32
2023-01-17T09:10:47.742Z,981.32
2023-01-17T09:11:47.723Z,981.36
2023-01-17T09:12:47.682Z,981.32
2023-01-17T09:13:47.654Z,981.37
2023-01-17T09:14:47.636Z,981.35
2023-01-17T09:15:47.594Z,981.36
2023-01-17T09:16:47.627Z,981.39
2023-01-17T09:17:47.534Z,981.43
2023-01-17T09:18:47.517Z,981.44
2023-01-17T09:19:47.861Z,981.45
2023-01-17T09:20:47.460Z,981.41
2023-01-17T09:21:47.433Z,981.50
2023-01-17T09:22:47.403Z,981.49
2023-01-17T09:23:47.380Z,981.49
2023-01-17T09:24:47.346Z,981.49
2023-01-17T09:25:48.497Z,981.48
2023-01-17T09:26:47.283Z,981.50
2023-01-17T09:27:47.258Z,981.51
2023-01-17T09:28:47.231Z,981.55
2023-01-17T09:29:47.197Z,981.51
2023-01-17T09:30:47.203Z,981.52
2023-01-17T09:31:47.174Z,981.55
2023-01-17T09:32:47.116Z,981.56
2023-01-17T09:33:47.084Z,981.54
2023-01-17T09:34:47.056Z,981.57
2023-01-17T09:35:47.057Z,981.59
2023-01-17T09:36:46.995Z,981.55
2023-01-17T09:37:46.970Z,981.63
2023-01-17T09:38:46.939Z,981.60
2023-01-17T09:39:46.923Z,981.59
2023-01-17T09:40:46.891Z,981.64
2023-01-17T09:41:46.856Z,981.61
2023-01-17T09:42:46.824Z,981.62
2023-01-17T09:43:46.805Z,981.64
2023-01-17T09:44:46.772Z,981.65
2023-01-17T09:45:46.757Z,981.67
2023-01-17T09:46:46.728Z,981.69
2023-01-17T09:47:46.676Z,981.71
2023-01-17T09:48:46.657Z,981.67
2023-01-17T09:49:46.642Z,981.70
2023-01-17T09:50:46.597Z,981.67
2023-01-17T09:51:46.594Z,981.72
2023-01-17T09:52:46.536Z,981.74
2023-01-17T09:53:46.502Z,981.72
2023-01-17T09:54:46.481Z,981.78
2023-01-17T09:55:46.457Z,981.75
2023-01-17T09:56:46.420Z,981.82
2023-01-17T09:57:46.395Z,981.84
2023-01-17T09:58:46.372Z,981.80
2023-01-17T09:59:46.332Z,981.82
2023-01-17T10:00:46.431Z,981.84
2023-01-17T10:01:46.453Z,981.84
2023-01-17T10:02:46.408Z,981.80
2023-01-17T10:03:46.302Z,981.86
2023-01-17T10:04:46.193Z,981.87
2023-01-17T10:05:46.169Z,981.85
2023-01-17T10:06:46.136Z,981.87
2023-01-17T10:07:46.135Z,981.92
2023-01-17T10:08:46.082Z,981.89
2023-01-17T10:09:46.053Z,981.90
2023-01-17T10:10:46.019Z,981.89
2023-01-17T10:11:45.995Z,981.92
2023-01-17T10:12:45.968Z,981.92
2023-01-17T10:13:46.263Z,981.94
2023-01-17T10:14:45.916Z,981.94
2023-01-17T10:15:45.876Z,981.94
2023-01-17T10:16:45.912Z,981.96
2023-01-17T10:17:45.822Z,981.97
2023-01-17T10:18:45.803Z,981.96
2023-01-17T10:19:45.766Z,981.98
2023-01-17T10:20:45.759Z,982.03
2023-01-17T10:21:45.704Z,981.98
2023-01-17T10:22:45.690Z,982.01
2023-01-17T10:23:45.669Z,982.06
2023-01-17T10:24:45.626Z,982.06
2023-01-17T10:25:45.587Z,982.03
2023-01-17T10:26:45.561Z,982.02
2023-01-17T10:27:45.539Z,982.04
2023-01-17T10:28:45.504Z,981.99
2023-01-17T10:29:45.470Z,981.97
2023-01-17T10:30:45.481Z,982.03
2023-01-17T10:31:45.451Z,982.03
2023-01-17T10:32:45.387Z,982.02
2023-01-17T10:33:45.369Z,982.03
2023-01-17T10:34:45.337Z,982.00
2023-01-17T10:35:45.298Z,982.04
2023-01-17T10:36:45.283Z,982.02
2023-01-17T10:37:45.248Z,982.00
2023-01-17T10:38:45.219Z,981.98
2023-01-17T10:39:45.210Z,981.98
2023-01-17T10:40:45.165Z,981.98
2023-01-17T10:41:45.130Z,982.00
2023-01-17T10:42:45.110Z,981.95
2023-01-17T10:43:45.071Z,981.96
2023-01-17T10:44:45.045Z,982.00
2023-01-17T10:45:45.140Z,981.98
2023-01-17T10:46:45.052Z,981.95
2023-01-17T10:47:44.956Z,981.96
2023-01-17T10:48:44.940Z,981.94
2023-01-17T10:49:44.900Z,981.97
2023-01-17T10:50:44.884Z,981.98
2023-01-17T10:51:44.857Z,981.92
2023-01-17T10:52:44.825Z,981.91
2023-01-17T10:53:44.793Z,981.94
2023-01-17T10:54:44.768Z,981.89
2023-01-17T10:55:44.746Z,981.86
2023-01-17T10:56:44.713Z,981.84
2023-01-17T10:57:44.678Z,981.89
2023-01-17T10:58:44.653Z,981.86
2023-01-17T10:59:44.619Z,981.82
2023-01-17T11:00:44.604Z,981.85
2023-01-17T11:01:44.702Z,981.88
2023-01-17T11:02:44.548Z,981.86
2023-01-17T11:03:44.506Z,981.87
2023-01-17T11:04:44.481Z,981.81
2023-01-17T11:05:44.473Z,981.80
2023-01-17T11:06:57.610Z,981.83
2023-01-17T11:07:44.390Z,981.81
2023-01-17T11:08:44.365Z,981.76
2023-01-17T11:09:44.365Z,981.76
2023-01-17T11:10:44.317Z,981.79
2023-01-17T11:11:44.304Z,981.79
2023-01-17T11:12:44.278Z,981.79
2023-01-17T11:13:44.226Z,981.79
2023-01-17T11:14:44.194Z,981.81
2023-01-17T11:15:44.187Z,981.82
2023-01-17T11:16:44.136Z,981.81
2023-01-17T11:17:44.104Z,981.82
2023-01-17T11:18:44.094Z,981.81
2023-01-17T11:19:44.050Z,981.82
2023-01-17T11:20:44.036Z,981.87
2023-01-17T11:21:45.711Z,981.83
2023-01-17T11:22:43.965Z,981.81
2023-01-17T11:23:43.948Z,981.85
2023-01-17T11:24:43.913Z,981.78
2023-01-17T11:25:43.881Z,981.83
2023-01-17T11:26:43.847Z,981.82
2023-01-17T11:27:43.847Z,981.81
2023-01-17T11:28:43.800Z,981.83
2023-01-17T11:29:43.768Z,981.86
2023-01-17T11:30:43.824Z,981.82
2023-01-17T11:31:43.719Z,981.82
2023-01-17T11:32:43.691Z,981.81
2023-01-17T11:33:43.656Z,981.81
2023-01-17T11:34:43.629Z,981.79
2023-01-17T11:35:43.612Z,981.82
2023-01-17T11:36:43.578Z,981.80
2023-01-17T11:37:43.541Z,981.82
2023-01-17T11:38:43.511Z,981.77
2023-01-17T11:39:44.384Z,981.78
2023-01-17T11:40:43.452Z,981.78
2023-01-17T11:41:43.433Z,981.79
2023-01-17T11:42:43.392Z,981.81
2023-01-17T11:43:43.402Z,981.78
2023-01-17T11:44:43.353Z,981.76
2023-01-17T11:45:43.313Z,981.78
2023-01-17T11:46:43.284Z,981.82
2023-01-17T11:47:43.255Z,981.83
2023-01-17T11:48:43.224Z,981.84
2023-01-17T11:49:43.201Z,981.82
2023-01-17T11:50:43.170Z,981.84
2023-01-17T11:51:43.150Z,981.85
2023-01-17T11:52:43.119Z,981.83
2023-01-17T11:53:43.124Z,981.83
2023-01-17T11:54:43.074Z,981.81
2023-01-17T11:55:43.036Z,981.80
2023-01-17T11:56:43.204Z,981.76
2023-01-17T11:57:42.978Z,981.77
2023-01-17T11:58:42.943Z,981.74
2023-01-17T11:59:42.935Z,981.75
2023-01-17T12:00:42.892Z,981.78
2023-01-17T12:01:42.861Z,981.77
2023-01-17T12:02:42.830Z,981.72
2023-01-17T12:03:42.848Z,981.77
2023-01-17T12:04:42.804Z,981.77
2023-01-17T12:05:42.750Z,981.79
2023-01-17T12:06:56.809Z,981.81
2023-01-17T12:07:42.693Z,981.71
2023-01-17T12:08:42.659Z,981.75
2023-01-17T12:09:42.636Z,981.76
2023-01-17T12:10:42.610Z,981.74
2023-01-17T12:11:42.585Z,981.76
2023-01-17T12:12:42.580Z,981.74
2023-01-17T12:13:42.529Z,981.75
2023-01-17T12:14:42.495Z,981.72
2023-01-17T12:15:42.557Z,981.70
2023-01-17T12:16:42.436Z,981.70
2023-01-17T12:17:42.417Z,981.70
2023-01-17T12:18:42.392Z,981.74
2023-01-17T12:19:42.360Z,981.75
2023-01-17T12:20:42.329Z,981.72
2023-01-17T12:21:42.298Z,981.72
2023-01-17T12:22:42.277Z,981.71
2023-01-17T12:23:42.245Z,981.71
2023-01-17T12:24:42.214Z,981.68
2023-01-17T12:25:42.192Z,981.70
2023-01-17T12:26:42.156Z,981.68
2023-01-17T12:27:43.490Z,981.67